LVL weather

Lawrenceville Brunswick Municipal Airport
Lawrenceville, Virginia, United States

Public forecast

Using degrees Fahrenheit for public forecast. Weather courtesy of forecast.io.

Current aviation weather report (METAR) for Lawrenceville Brunswick Municipal Airport

Retrieved 2019/11/18 19:35 UTC (0 seconds ago):

KLVL 181935Z AUTO 20003KT 10SM OVC023 10/05 A2977 RMK AO1 T01000048

Closest aviation forecast (TAF) to Lawrenceville Brunswick Municipal Airport

Closest forecast is Richmond International Airport, 49.5 nm (91.7 km) NNE. Retrieved 2019/11/18 18:36 UTC (43 minutes ago):

TAF COR KRIC 181734Z 1818/1918 35004KT P6SM SCT020 BKN070 FM182100 VRB03KT 4SM -SHRA BKN025 BKN050 FM190200 00000KT P6SM VCSH OVC009 FM190600 00000KT P6SM BKN005 FM191400 00000KT P6SM OVC012 FM191600 25004KT P6SM BKN040